Time;durP1;ratioP1;P1;durP2;ratioP2;P2;SDS_P1;SDS_P2;PMS_P1;PMS_P2;Temp;Humidity;BMP_temperature;BMP_pressure;BME280_temperature;BME280_humidity;BME280_pressure;Samples;Min_cycle;Max_cycle;Signal;HPM_P1;HPM_P2
2022/01/14 00:00:36;;;;;;;28.50;16.70;;;;;;;2.52;59.90;101059.11;117432;1185;24163;-56
2022/01/14 00:03:05;;;;;;;34.20;18.80;;;;;;;2.53;59.80;101055.98;117416;1180;23509;-55
2022/01/14 00:05:34;;;;;;;27.80;16.60;;;;;;;2.54;59.77;101058.27;117425;1183;23548;-56
2022/01/14 00:08:02;;;;;;;29.00;16.90;;;;;;;2.54;59.86;101058.95;117354;1183;23445;-64
2022/01/14 00:10:32;;;;;;;30.60;17.50;;;;;;;2.55;60.09;101054.12;117276;1185;23475;-56
2022/01/14 00:13:09;;;;;;;33.50;18.40;;;;;;;2.56;59.95;101048.77;117377;1185;21954;-64
2022/01/14 00:15:37;;;;;;;26.50;15.80;;;;;;;2.56;60.06;101046.20;117352;1185;23467;-56
2022/01/14 00:18:05;;;;;;;38.40;19.80;;;;;;;2.57;59.92;101034.95;117338;1185;23449;-56
2022/01/14 00:20:34;;;;;;;28.30;16.80;;;;;;;2.59;59.93;101028.77;117341;1185;22793;-56
2022/01/14 00:23:02;;;;;;;28.90;17.90;;;;;;;2.59;59.88;101029.65;117399;1185;21857;-56
2022/01/14 00:33:36;;;;;;;30.50;17.50;;;;;;;2.61;60.05;101022.62;117369;1183;21854;-56
2022/01/14 00:36:05;;;;;;;30.70;18.10;;;;;;;2.62;60.02;101020.91;117350;1185;21860;-56
2022/01/14 00:38:34;;;;;;;30.10;18.40;;;;;;;2.63;59.99;101020.95;117399;1185;22085;-65
2022/01/14 00:41:03;;;;;;;31.50;17.80;;;;;;;2.64;60.10;101019.43;117394;1183;22941;-56
2022/01/14 00:43:31;;;;;;;30.10;16.70;;;;;;;2.65;60.00;101009.56;117376;1183;21863;-65
2022/01/14 00:46:00;;;;;;;30.90;17.80;;;;;;;2.67;60.01;101014.97;117523;1182;21841;-56
2022/01/14 00:48:28;;;;;;;30.80;17.60;;;;;;;2.66;60.01;101005.27;117393;1181;21872;-54
2022/01/14 00:50:56;;;;;;;29.50;17.30;;;;;;;2.66;60.01;100992.27;117381;1185;23448;-54
2022/01/14 00:53:25;;;;;;;30.30;17.70;;;;;;;2.68;60.13;100986.77;117403;1185;21845;-55
2022/01/14 00:56:06;;;;;;;27.80;17.60;;;;;;;2.70;59.90;100988.39;117368;1185;23554;-64
2022/01/14 01:01:21;;;;;;;28.40;16.60;;;;;;;2.74;59.95;100979.50;117291;1183;21913;-56
2022/01/14 01:03:50;;;;;;;29.00;17.30;;;;;;;2.75;60.17;100976.58;117397;1183;22570;-64
2022/01/14 01:06:18;;;;;;;30.60;17.10;;;;;;;2.76;60.14;100973.67;117400;1182;21901;-64
2022/01/14 01:08:49;;;;;;;26.00;15.70;;;;;;;2.78;60.03;100969.05;117310;1185;21917;-64
2022/01/14 01:11:24;;;;;;;27.10;16.40;;;;;;;2.81;60.22;100965.33;117323;1185;22623;-64
2022/01/14 01:14:02;;;;;;;25.30;15.40;;;;;;;2.83;60.12;100959.65;117378;1186;21851;-64
2022/01/14 01:16:31;;;;;;;26.00;16.30;;;;;;;2.85;60.28;100954.33;117424;1182;22921;-55
2022/01/14 01:18:59;;;;;;;26.70;15.70;;;;;;;2.87;60.18;100949.02;117409;1185;21858;-64
2022/01/14 01:21:28;;;;;;;29.10;16.50;;;;;;;2.89;60.13;100945.23;117401;1185;23467;-55
2022/01/14 01:23:56;;;;;;;30.80;17.30;;;;;;;2.89;60.32;100940.76;117453;1185;21858;-55
2022/01/14 01:26:31;;;;;;;27.40;15.60;;;;;;;2.92;60.29;100929.73;117402;1182;24171;-64
2022/01/14 01:31:35;;;;;;;31.20;18.10;;;;;;;2.96;60.10;100917.02;117343;1188;23442;-55
2022/01/14 01:34:22;;;;;;;27.90;16.90;;;;;;;2.99;60.23;100905.66;117417;1182;22922;-65
2022/01/14 01:36:52;;;;;;;32.60;17.10;;;;;;;3.02;60.10;100896.71;117326;1182;21908;-55
2022/01/14 01:39:23;;;;;;;32.10;17.40;;;;;;;3.04;60.16;100889.51;117400;1185;21863;-64
2022/01/14 01:41:53;;;;;;;26.20;16.00;;;;;;;3.06;60.02;100880.03;117399;1185;23689;-64
2022/01/14 01:44:23;;;;;;;28.50;16.30;;;;;;;3.08;60.30;100872.79;117355;1185;21916;-55
2022/01/14 01:46:52;;;;;;;29.90;17.40;;;;;;;3.10;60.27;100867.98;117441;1185;23553;-55
2022/01/14 01:49:25;;;;;;;26.70;16.30;;;;;;;3.14;60.37;100864.44;117424;1183;22158;-55
2022/01/14 01:51:55;;;;;;;29.00;16.50;;;;;;;3.18;60.25;100860.54;117331;1185;21854;-64
2022/01/14 01:54:24;;;;;;;24.70;15.30;;;;;;;3.22;60.34;100857.87;117364;1185;21914;-55
2022/01/14 01:56:54;;;;;;;27.10;17.30;;;;;;;3.25;60.19;100848.92;117401;1185;21853;-54
2022/01/14 01:59:23;;;;;;;25.60;16.20;;;;;;;3.27;60.32;100846.91;117344;1185;23034;-64
2022/01/14 02:01:52;;;;;;;30.30;15.80;;;;;;;3.30;60.25;100844.90;117371;1185;23471;-55
2022/01/14 02:04:20;;;;;;;24.20;15.20;;;;;;;3.32;60.37;100839.03;117394;1182;21860;-55
2022/01/14 02:06:50;;;;;;;23.20;14.40;;;;;;;3.34;60.26;100830.75;117381;1184;23484;-62
2022/01/14 02:09:18;;;;;;;29.00;15.80;;;;;;;3.36;60.34;100833.59;117295;1182;21854;-64
2022/01/14 02:11:49;;;;;;;27.00;16.10;;;;;;;3.38;60.49;100826.70;117277;1185;23906;-64
2022/01/14 02:19:41;;;;;;;25.60;16.10;;;;;;;3.46;60.28;100818.21;117371;1180;21858;-64
2022/01/14 02:22:11;;;;;;;26.70;15.40;;;;;;;3.46;60.40;100820.13;117349;1185;23436;-54
2022/01/14 02:27:12;;;;;;;27.40;15.50;;;;;;;3.49;60.30;100817.95;117343;1185;21864;-55
2022/01/14 02:29:40;;;;;;;27.00;16.10;;;;;;;3.51;60.50;100812.96;117325;1181;22080;-55
2022/01/14 02:32:08;;;;;;;24.10;14.70;;;;;;;3.53;60.39;100806.41;117418;1182;23435;-63
2022/01/14 02:34:37;;;;;;;23.50;14.90;;;;;;;3.55;60.42;100802.64;117399;1182;23449;-54
2022/01/14 02:37:05;;;;;;;26.80;16.10;;;;;;;3.57;60.50;100800.60;117417;1185;23566;-64
2022/01/14 02:39:33;;;;;;;24.90;14.70;;;;;;;3.61;60.52;100790.09;117486;1186;21894;-57
2022/01/14 02:42:02;;;;;;;25.50;14.70;;;;;;;3.62;60.63;100786.84;117336;1182;21857;-55
2022/01/14 02:44:32;;;;;;;25.90;16.10;;;;;;;3.64;60.40;100780.61;117417;1182;21848;-54
2022/01/14 02:47:05;;;;;;;26.70;15.20;;;;;;;3.66;60.45;100778.92;117513;1186;22918;-55
2022/01/14 02:49:37;;;;;;;22.40;14.10;;;;;;;3.68;60.48;100773.26;117476;1182;21949;-55
2022/01/14 02:52:08;;;;;;;23.80;14.00;;;;;;;3.70;60.43;100770.35;117346;1185;22926;-56
2022/01/14 02:54:52;;;;;;;23.90;14.40;;;;;;;3.72;60.55;100773.87;117383;1182;23541;-63
2022/01/14 02:57:20;;;;;;;22.60;13.30;;;;;;;3.75;60.45;100774.63;117469;1182;21858;-56
2022/01/14 02:59:57;;;;;;;24.50;14.80;;;;;;;3.78;60.42;100767.73;117284;1185;23448;-55
2022/01/14 03:02:26;;;;;;;23.40;13.30;;;;;;;3.80;60.65;100768.13;117357;1184;23481;-55
2022/01/14 03:04:57;;;;;;;;;;;;;;;3.82;60.57;100767.48;117333;1182;23426;-55
2022/01/14 03:07:25;;;;;;;21.40;13.50;;;;;;;3.85;60.62;100763.89;117384;1182;23551;-62
2022/01/14 03:09:53;;;;;;;19.90;13.00;;;;;;;3.88;60.39;100772.13;117439;1182;21854;-55
2022/01/14 03:12:21;;;;;;;25.00;13.70;;;;;;;3.90;60.77;100769.20;117394;1185;22941;-63
2022/01/14 03:14:49;;;;;;;24.80;14.00;;;;;;;3.92;60.66;100765.42;117305;1185;23471;-63
2022/01/14 03:17:18;;;;;;;23.70;14.20;;;;;;;3.94;60.49;100762.17;117345;1185;21901;-63
2022/01/14 03:19:47;;;;;;;24.80;14.00;;;;;;;3.97;60.45;100773.35;117334;1183;21860;-63
2022/01/14 03:22:28;;;;;;;24.50;14.30;;;;;;;3.99;60.49;100762.45;117375;1182;22925;-55
2022/01/14 03:27:25;;;;;;;24.90;14.00;;;;;;;4.01;60.63;100751.04;117289;1185;23456;-55
2022/01/14 03:29:53;;;;;;;22.20;13.20;;;;;;;4.02;60.48;100747.23;117411;1185;21857;-63
2022/01/14 03:32:21;;;;;;;20.70;13.10;;;;;;;4.02;60.56;100739.59;117344;1185;22914;-64
2022/01/14 03:34:49;;;;;;;21.90;12.70;;;;;;;4.01;60.60;100740.45;117407;1182;21993;-55
2022/01/14 03:37:18;;;;;;;22.80;13.30;;;;;;;4.04;60.62;100736.33;117390;1185;23574;-59
2022/01/14 03:39:46;;;;;;;19.60;11.80;;;;;;;4.06;60.77;100734.11;117406;1185;23464;-55
2022/01/14 03:42:14;;;;;;;21.00;11.70;;;;;;;4.08;60.80;100724.94;117433;1185;23435;-56
2022/01/14 03:44:43;;;;;;;24.60;13.40;;;;;;;4.10;60.54;100716.63;117276;1185;22997;-63
2022/01/14 03:47:11;;;;;;;22.20;13.50;;;;;;;4.10;60.59;100716.48;117347;1176;21845;-63
2022/01/14 03:49:40;;;;;;;23.50;12.90;;;;;;;4.11;60.54;100708.85;117346;1185;23448;-55
2022/01/14 03:52:08;;;;;;;19.20;12.60;;;;;;;4.11;60.75;100702.61;117401;1185;21851;-55
2022/01/14 03:54:37;;;;;;;20.60;13.00;;;;;;;4.12;60.56;100698.80;117358;1185;21855;-63
2022/01/14 03:57:05;;;;;;;23.20;13.40;;;;;;;4.13;60.71;100700.55;117429;1185;23458;-64
2022/01/14 03:59:33;;;;;;;23.20;12.90;;;;;;;4.14;60.53;100699.02;117400;1183;22006;-63
2022/01/14 04:02:03;;;;;;;20.50;12.40;;;;;;;4.14;60.60;100702.14;117397;1185;21848;-55
2022/01/14 04:04:32;;;;;;;22.70;13.10;;;;;;;4.14;60.51;100703.19;117339;1188;21939;-55
2022/01/14 04:07:00;;;;;;;23.60;12.20;;;;;;;4.16;60.72;100703.92;117436;1186;23557;-63
2022/01/14 04:09:31;;;;;;;22.00;13.30;;;;;;;4.16;60.63;100697.49;117383;1183;21862;-62
2022/01/14 04:12:01;;;;;;;18.90;12.80;;;;;;;4.19;60.57;100696.86;117359;1182;21860;-63
2022/01/14 04:16:59;;;;;;;23.90;13.50;;;;;;;4.20;60.59;100689.75;117358;1185;21895;-55
2022/01/14 04:19:28;;;;;;;17.40;11.20;;;;;;;4.20;60.63;100685.92;117429;1185;22072;-63
2022/01/14 04:21:56;;;;;;;19.40;11.70;;;;;;;4.20;60.59;100679.33;117385;1185;23448;-63
2022/01/14 04:24:25;;;;;;;20.80;13.10;;;;;;;4.20;60.37;100676.72;117297;1185;21882;-55
2022/01/14 04:26:53;;;;;;;19.20;12.10;;;;;;;4.19;60.46;100678.61;117425;1182;23628;-63
2022/01/14 04:29:21;;;;;;;19.50;12.10;;;;;;;4.19;60.54;100678.44;117435;1185;23635;-64
2022/01/14 04:31:49;;;;;;;20.90;12.20;;;;;;;4.20;60.59;100682.95;117386;1176;23448;-63
2022/01/14 04:34:18;;;;;;;22.00;13.30;;;;;;;4.19;60.66;100681.39;117314;1182;23522;-63
2022/01/14 04:36:46;;;;;;;18.50;11.40;;;;;;;4.18;60.55;100664.70;117370;1179;21892;-63
2022/01/14 04:39:14;;;;;;;21.00;12.30;;;;;;;4.17;60.64;100662.60;117406;1189;23448;-64
2022/01/14 04:41:42;;;;;;;22.40;12.90;;;;;;;4.16;60.50;100659.45;117442;1185;22967;-63
2022/01/14 04:44:14;;;;;;;21.10;12.20;;;;;;;4.14;60.49;100651.08;117341;1185;21884;-55
2022/01/14 04:49:10;;;;;;;21.70;13.50;;;;;;;4.11;60.66;100656.59;117343;1180;23455;-63
2022/01/14 04:51:39;;;;;;;19.20;13.10;;;;;;;4.10;60.39;100657.25;117351;1185;21899;-55
2022/01/14 04:54:09;;;;;;;21.40;12.90;;;;;;;4.09;60.50;100660.53;117351;1185;23806;-56
2022/01/14 04:56:37;;;;;;;22.10;13.00;;;;;;;4.10;60.52;100667.14;117325;1185;21860;-56
2022/01/14 04:59:05;;;;;;;21.30;12.60;;;;;;;4.08;60.67;100669.20;117430;1183;21855;-63
2022/01/14 05:01:34;;;;;;;18.50;11.30;;;;;;;4.04;60.63;100669.83;117477;1183;23445;-56
2022/01/14 05:04:03;;;;;;;18.80;11.40;;;;;;;4.02;60.68;100674.81;117494;1185;22969;-56
2022/01/14 05:06:32;;;;;;;19.80;12.50;;;;;;;4.01;60.50;100675.84;117343;1185;23449;-55
2022/01/14 05:09:05;;;;;;;19.20;12.50;;;;;;;4.01;60.62;100671.48;117418;1182;21861;-55
2022/01/14 05:11:40;;;;;;;18.10;11.40;;;;;;;4.02;60.60;100673.77;117333;1186;21854;-55
2022/01/14 05:14:08;;;;;;;19.70;11.90;;;;;;;4.04;60.63;100666.86;117366;1182;21842;-64
2022/01/14 05:16:36;;;;;;;18.20;11.80;;;;;;;4.07;60.77;100668.48;117415;1183;22618;-55
2022/01/14 05:19:04;;;;;;;19.50;12.60;;;;;;;4.10;60.76;100670.63;117475;1185;22899;-55
2022/01/14 05:21:32;;;;;;;16.10;10.40;;;;;;;4.11;60.79;100670.33;117448;1183;24172;-63
2022/01/14 05:24:01;;;;;;;18.60;11.80;;;;;;;4.13;60.67;100671.72;117452;1182;23475;-55
2022/01/14 05:26:29;;;;;;;18.20;11.40;;;;;;;4.13;60.88;100666.01;117398;1185;23475;-63
2022/01/14 05:28:57;;;;;;;17.80;10.70;;;;;;;4.16;60.69;100661.89;117416;1185;23543;-56
2022/01/14 05:31:48;;;;;;;19.40;10.70;;;;;;;4.17;60.72;100661.03;117388;1186;22921;-63
2022/01/14 05:34:16;;;;;;;17.40;10.40;;;;;;;4.19;60.64;100661.23;117461;1182;21860;-64
2022/01/14 05:36:44;;;;;;;13.00;8.90;;;;;;;4.21;60.55;100666.66;117360;1185;21888;-64
2022/01/14 05:39:12;;;;;;;13.60;8.60;;;;;;;4.26;60.80;100663.98;117370;1185;23622;-55
2022/01/14 05:41:41;;;;;;;13.20;7.90;;;;;;;4.34;60.76;100658.56;117342;1176;21859;-63
2022/01/14 05:44:09;;;;;;;14.70;8.40;;;;;;;4.43;61.12;100653.67;117360;1185;23445;-62
2022/01/14 05:46:37;;;;;;;16.70;9.20;;;;;;;4.53;60.93;100650.54;117366;1185;22869;-55
2022/01/14 05:49:06;;;;;;;16.60;9.60;;;;;;;4.60;60.93;100657.27;117396;1181;23484;-56
2022/01/14 05:51:34;;;;;;;15.80;9.70;;;;;;;4.66;60.85;100655.78;117395;1183;23076;-57
2022/01/14 05:54:03;;;;;;;19.40;10.10;;;;;;;4.69;60.90;100660.70;117330;1180;21868;-64
2022/01/14 05:56:31;;;;;;;17.90;10.60;;;;;;;4.70;61.02;100657.59;117351;1185;21902;-63
2022/01/14 05:58:59;;;;;;;17.60;10.70;;;;;;;4.73;61.15;100654.00;117303;1185;23449;-57
2022/01/14 06:01:30;;;;;;;16.90;10.20;;;;;;;4.75;60.84;100658.04;117348;1185;21852;-64
2022/01/14 06:03:59;;;;;;;;;;;;;;;4.77;61.15;100657.71;117360;1185;22966;-64
2022/01/14 06:06:27;;;;;;;18.30;10.60;;;;;;;4.79;60.78;100654.63;117525;1185;21924;-63
2022/01/14 06:08:56;;;;;;;20.10;12.10;;;;;;;4.79;60.73;100653.92;117423;1182;22648;-57
2022/01/14 06:11:24;;;;;;;19.50;12.40;;;;;;;4.79;60.66;100649.40;117378;1185;22932;-64
2022/01/14 06:13:53;;;;;;;18.00;11.70;;;;;;;4.79;60.70;100647.64;117365;1185;23012;-56
2022/01/14 06:16:21;;;;;;;21.00;11.70;;;;;;;4.78;60.51;100650.77;117414;1183;21898;-63
2022/01/14 06:18:49;;;;;;;20.40;12.10;;;;;;;4.78;60.73;100654.23;117368;1185;23676;-56
2022/01/14 06:21:17;;;;;;;19.40;12.80;;;;;;;4.78;60.98;100649.73;117425;1182;21848;-63
2022/01/14 06:23:46;;;;;;;20.80;13.60;;;;;;;4.78;60.97;100639.82;117370;1185;23432;-56
2022/01/14 06:26:23;;;;;;;18.40;12.70;;;;;;;4.78;60.90;100636.86;117388;1185;23472;-65
2022/01/14 06:28:51;;;;;;;21.10;13.40;;;;;;;4.78;60.61;100631.98;117352;1186;23585;-57
2022/01/14 06:31:20;;;;;;;22.80;13.20;;;;;;;4.78;60.71;100625.04;117368;1185;23461;-56
2022/01/14 06:33:48;;;;;;;24.20;15.10;;;;;;;4.78;60.92;100615.47;117380;1185;22046;-63
2022/01/14 06:36:16;;;;;;;21.10;13.60;;;;;;;4.78;60.89;100610.26;117305;1182;21937;-56
2022/01/14 06:38:45;;;;;;;21.40;13.30;;;;;;;4.77;60.92;100609.20;117398;1182;21932;-64
2022/01/14 06:41:14;;;;;;;21.90;14.00;;;;;;;4.77;60.64;100604.33;117385;1185;22925;-57
2022/01/14 06:43:42;;;;;;;20.80;13.90;;;;;;;4.77;60.87;100605.38;117343;1183;22534;-56
2022/01/14 06:46:10;;;;;;;22.80;13.90;;;;;;;4.78;60.71;100603.13;118827;1185;21787;-59
2022/01/14 06:48:38;;;;;;;23.00;14.80;;;;;;;4.80;60.92;100595.67;117425;1182;23567;-63
2022/01/14 06:51:12;;;;;;;23.60;13.80;;;;;;;4.78;61.02;100589.05;117364;1186;21918;-57
2022/01/14 06:53:45;;;;;;;22.80;14.50;;;;;;;4.78;60.91;100590.09;117153;1187;23489;-56
2022/01/14 06:56:14;;;;;;;21.90;14.50;;;;;;;4.78;61.01;100584.71;117314;1185;23551;-64
2022/01/14 06:58:43;;;;;;;25.00;14.70;;;;;;;4.80;60.68;100583.52;117974;1185;22935;-56
2022/01/14 07:01:12;;;;;;;22.20;13.80;;;;;;;4.82;60.99;100575.02;117391;1186;21856;-56
2022/01/14 07:03:40;;;;;;;23.50;14.90;;;;;;;4.83;60.89;100576.95;117407;1185;21953;-63
2022/01/14 07:06:10;;;;;;;24.10;15.20;;;;;;;4.84;60.93;100570.71;117471;1182;23445;-56
2022/01/14 07:08:38;;;;;;;24.10;13.90;;;;;;;4.85;60.77;100563.77;117370;1186;21850;-63
2022/01/14 07:11:07;;;;;;;22.70;13.90;;;;;;;4.86;60.87;100560.30;117380;1185;23596;-58
2022/01/14 07:13:35;;;;;;;24.20;14.70;;;;;;;4.85;60.95;100564.46;117425;1183;22962;-63
2022/01/14 07:16:04;;;;;;;24.70;15.60;;;;;;;4.85;61.16;100559.94;117409;1186;22969;-62
2022/01/14 07:18:33;;;;;;;23.10;14.90;;;;;;;4.85;60.89;100555.95;117419;1186;21854;-63
2022/01/14 07:21:01;;;;;;;24.80;15.50;;;;;;;4.85;60.75;100551.78;117451;1185;22963;-57
2022/01/14 07:23:30;;;;;;;25.20;14.90;;;;;;;4.85;60.92;100551.42;117520;1185;23278;-64
2022/01/14 07:25:58;;;;;;;27.20;16.50;;;;;;;4.85;60.79;100549.34;117440;1185;24146;-57
2022/01/14 07:28:26;;;;;;;27.90;15.90;;;;;;;4.86;60.90;100535.95;117437;1184;23449;-64
2022/01/14 07:30:54;;;;;;;27.20;16.10;;;;;;;4.86;60.74;100528.65;117429;1184;21957;-64
2022/01/14 07:33:23;;;;;;;27.30;16.40;;;;;;;4.86;60.91;100520.83;117379;1180;21858;-64
2022/01/14 07:35:51;;;;;;;25.00;16.20;;;;;;;4.85;60.82;100519.09;117250;1182;23643;-63
2022/01/14 07:38:19;;;;;;;26.80;15.90;;;;;;;4.85;60.79;100518.55;117374;1185;23449;-63
2022/01/14 07:40:47;;;;;;;25.30;16.30;;;;;;;4.83;60.97;100504.45;117446;1186;21857;-64
2022/01/14 07:43:17;;;;;;;26.50;17.00;;;;;;;4.83;61.01;100499.23;117289;1183;21970;-57
2022/01/14 07:45:47;;;;;;;30.40;18.50;;;;;;;4.82;61.13;100499.57;117327;1185;21869;-57
2022/01/14 07:48:15;;;;;;;27.50;17.20;;;;;;;4.82;60.86;100498.52;117321;1185;24172;-65
2022/01/14 07:50:44;;;;;;;28.10;17.90;;;;;;;4.81;60.81;100494.34;117381;1185;23451;-58
2022/01/14 07:53:13;;;;;;;25.00;16.40;;;;;;;4.81;60.74;100485.46;117321;1185;21854;-64
2022/01/14 07:55:41;;;;;;;25.90;16.20;;;;;;;4.82;61.20;100485.13;117465;1186;22943;-65
2022/01/14 07:58:09;;;;;;;32.30;18.80;;;;;;;4.82;60.74;100485.99;117439;1185;21844;-57
2022/01/14 08:00:38;;;;;;;27.30;16.80;;;;;;;4.83;60.83;100482.02;117424;1182;21860;-65
2022/01/14 08:03:07;;;;;;;28.10;16.80;;;;;;;4.84;60.86;100481.67;117366;1185;21861;-57
2022/01/14 08:05:35;;;;;;;29.90;17.50;;;;;;;4.86;60.92;100479.61;117370;1185;22923;-57
2022/01/14 08:08:19;;;;;;;36.60;18.70;;;;;;;4.87;61.01;100474.23;117348;1182;23481;-57
2022/01/14 08:10:47;;;;;;;31.10;18.00;;;;;;;4.89;60.94;100464.70;117414;1186;21853;-58
2022/01/14 08:13:15;;;;;;;32.10;18.30;;;;;;;4.92;60.88;100454.83;117408;1183;24206;-64
2022/01/14 08:15:44;;;;;;;30.30;18.40;;;;;;;4.96;60.84;100456.79;117384;1185;21894;-65
2022/01/14 08:18:13;;;;;;;32.70;18.80;;;;;;;4.98;60.98;100462.91;117435;1185;23452;-57
2022/01/14 08:20:42;;;;;;;30.00;18.00;;;;;;;5.01;61.19;100466.42;117394;1176;21851;-57
2022/01/14 08:23:10;;;;;;;29.70;17.40;;;;;;;5.02;60.98;100467.98;117400;1185;21935;-58
2022/01/14 08:25:39;;;;;;;32.10;17.80;;;;;;;5.02;61.07;100468.69;117376;1181;23461;-57
2022/01/14 08:28:07;;;;;;;32.80;18.50;;;;;;;5.02;61.03;100471.30;117415;1184;23457;-64
2022/01/14 08:30:36;;;;;;;32.20;19.50;;;;;;;5.02;60.81;100465.05;118060;1185;21627;-55
2022/01/14 08:33:05;;;;;;;36.00;19.40;;;;;;;5.02;60.86;100460.17;117404;1185;21864;-55
2022/01/14 08:35:33;;;;;;;31.70;20.10;;;;;;;5.00;60.66;100455.27;117380;1185;21880;-55
2022/01/14 08:38:01;;;;;;;31.30;20.20;;;;;;;4.99;61.01;100459.27;117426;1182;21864;-62
2022/01/14 08:40:30;;;;;;;32.80;20.30;;;;;;;4.99;60.91;100449.52;117423;1180;21857;-56
2022/01/14 08:42:58;;;;;;;32.10;19.80;;;;;;;5.00;60.90;100441.71;117440;1182;21857;-61
2022/01/14 08:45:27;;;;;;;31.40;19.30;;;;;;;5.01;60.92;100444.85;117353;1182;21851;-55
2022/01/14 08:47:55;;;;;;;34.00;19.20;;;;;;;5.00;60.67;100439.27;117424;1182;23548;-62
2022/01/14 08:50:29;;;;;;;30.00;18.00;;;;;;;5.00;61.10;100440.15;117417;1182;21855;-62
2022/01/14 08:52:59;;;;;;;32.70;19.70;;;;;;;4.99;60.86;100437.70;117370;1183;21847;-55
2022/01/14 08:55:27;;;;;;;30.30;18.50;;;;;;;4.99;60.71;100437.02;117374;1185;23452;-55
2022/01/14 08:57:55;;;;;;;33.20;20.10;;;;;;;4.99;60.88;100434.23;117340;1184;23570;-55
2022/01/14 09:00:24;;;;;;;33.20;19.90;;;;;;;4.99;60.91;100427.79;117394;1186;21855;-62
2022/01/14 09:02:53;;;;;;;31.70;18.40;;;;;;;4.99;61.03;100420.84;117411;1186;22748;-55
2022/01/14 09:05:22;;;;;;;31.50;18.00;;;;;;;5.00;60.90;100422.39;117403;1185;22923;-62
2022/01/14 09:07:50;;;;;;;31.10;19.10;;;;;;;5.02;61.01;100414.08;117430;1182;23448;-55
2022/01/14 09:10:18;;;;;;;33.80;19.70;;;;;;;5.04;61.08;100409.40;117473;1183;21857;-55
2022/01/14 09:12:48;;;;;;;31.50;18.90;;;;;;;5.06;60.97;100402.48;117404;1183;21961;-57
2022/01/14 09:15:16;;;;;;;31.70;18.50;;;;;;;5.08;60.89;100400.39;117446;1182;21902;-62
2022/01/14 09:17:45;;;;;;;33.50;21.00;;;;;;;5.09;60.90;100388.40;117462;1186;21844;-62
2022/01/14 09:20:14;;;;;;;32.00;19.50;;;;;;;5.07;60.97;100375.34;117407;1185;23480;-62
2022/01/14 09:22:47;;;;;;;35.60;21.90;;;;;;;5.06;60.93;100366.12;117363;1185;21966;-62
2022/01/14 09:25:19;;;;;;;37.70;21.50;;;;;;;5.06;60.91;100357.42;117403;1186;22655;-56
2022/01/14 09:27:49;;;;;;;34.10;20.40;;;;;;;5.05;60.96;100352.89;117402;1183;23563;-62
2022/01/14 09:30:19;;;;;;;35.60;21.20;;;;;;;5.04;61.04;100350.97;117465;1186;22183;-56
2022/01/14 09:32:47;;;;;;;32.40;20.30;;;;;;;5.04;61.12;100347.67;117317;1185;23587;-56
2022/01/14 09:35:16;;;;;;;35.40;22.00;;;;;;;5.04;60.93;100343.49;117436;1182;21851;-56
2022/01/14 09:37:49;;;;;;;32.90;20.40;;;;;;;5.05;61.03;100342.63;117441;1183;21975;-63
2022/01/14 09:40:18;;;;;;;35.00;21.20;;;;;;;5.06;61.21;100334.65;117451;1186;23627;-57
2022/01/14 09:42:50;;;;;;;37.70;22.40;;;;;;;5.07;61.12;100322.13;117449;1186;23645;-56
2022/01/14 09:45:18;;;;;;;36.10;22.40;;;;;;;5.07;61.17;100320.56;117376;1186;22970;-63
2022/01/14 09:47:48;;;;;;;39.00;23.10;;;;;;;5.09;60.99;100310.66;117463;1186;22158;-64
2022/01/14 09:50:20;;;;;;;33.90;20.80;;;;;;;5.09;61.04;100301.96;117399;1185;21858;-64
2022/01/14 09:52:51;;;;;;;34.10;21.00;;;;;;;5.08;61.02;100294.65;117391;1185;21923;-64
2022/01/14 09:55:20;;;;;;;35.70;22.60;;;;;;;5.08;60.84;100290.81;117165;1185;22914;-64
2022/01/14 09:57:49;;;;;;;35.00;21.70;;;;;;;5.06;60.90;100290.30;117377;1185;21922;-63
2022/01/14 10:00:17;;;;;;;36.20;22.90;;;;;;;5.06;60.91;100281.59;117426;1185;23629;-63
2022/01/14 10:02:45;;;;;;;41.20;24.50;;;;;;;5.05;61.05;100273.41;117363;1185;21860;-58
2022/01/14 10:05:36;;;;;;;39.70;22.00;;;;;;;5.06;60.94;100264.55;117285;1185;24159;-57
2022/01/14 10:08:19;;;;;;;;;;;;;;;5.08;60.88;100260.73;117374;1182;21882;-65
2022/01/14 10:10:55;;;;;;;29.80;18.60;;;;;;;5.08;61.11;100247.17;117340;1185;21864;-57
2022/01/14 10:13:34;;;;;;;31.50;18.90;;;;;;;5.08;61.01;100234.30;117413;1182;23563;-64
2022/01/14 10:16:07;;;;;;;32.90;19.30;;;;;;;5.08;60.89;100229.42;117434;1182;23478;-57
2022/01/14 10:18:36;;;;;;;32.80;20.80;;;;;;;5.09;60.84;100225.79;117417;1185;21857;-56
2022/01/14 10:21:06;;;;;;;33.70;20.50;;;;;;;5.12;60.93;100212.75;117422;1185;24193;-56
2022/01/14 10:23:39;;;;;;;36.70;20.50;;;;;;;5.14;60.97;100200.23;117374;1180;23456;-58
2022/01/14 10:26:07;;;;;;;33.90;20.10;;;;;;;5.16;61.09;100197.30;117403;1186;21855;-57
2022/01/14 10:28:35;;;;;;;31.90;19.70;;;;;;;5.17;60.76;100190.69;117356;1183;23594;-65
2022/01/14 10:31:05;;;;;;;29.60;18.40;;;;;;;5.19;60.81;100183.76;117404;1185;21973;-65
2022/01/14 10:33:34;;;;;;;29.60;18.70;;;;;;;5.18;60.89;100170.35;117313;1185;23484;-64
2022/01/14 10:36:03;;;;;;;33.10;18.70;;;;;;;5.16;60.91;100164.42;117389;1185;24169;-64
2022/01/14 10:38:39;;;;;;;32.00;20.60;;;;;;;5.14;61.22;100157.63;117413;1185;21912;-64
2022/01/14 10:41:11;;;;;;;34.40;19.90;;;;;;;5.12;60.72;100150.83;117317;1182;22575;-64
2022/01/14 10:43:45;;;;;;;32.30;19.60;;;;;;;5.11;61.16;100141.08;117375;1185;23638;-63
2022/01/14 10:46:13;;;;;;;34.50;19.30;;;;;;;5.13;61.03;100128.92;117322;1185;21824;-57
2022/01/14 10:48:43;;;;;;;27.60;18.00;;;;;;;5.15;60.88;100122.32;117378;1186;23646;-57
2022/01/14 10:51:12;;;;;;;29.30;18.40;;;;;;;5.17;61.13;100111.38;117391;1183;23580;-57
2022/01/14 10:53:42;;;;;;;30.00;17.80;;;;;;;5.20;61.09;100105.48;117415;1185;23680;-64
2022/01/14 10:56:13;;;;;;;29.20;16.40;;;;;;;5.24;60.99;100109.33;117380;1183;23730;-70
2022/01/14 10:58:50;;;;;;;31.70;18.40;;;;;;;5.28;61.03;100097.88;117303;1183;22944;-64
2022/01/14 11:01:21;;;;;;;32.60;18.60;;;;;;;5.33;61.23;100094.75;117333;1182;23588;-64
2022/01/14 11:03:56;;;;;;;26.60;16.20;;;;;;;5.38;61.06;100086.42;117324;1185;22980;-67
2022/01/14 11:06:26;;;;;;;38.00;16.60;;;;;;;5.46;61.25;100076.55;117413;1183;23585;-65
2022/01/14 11:09:18;;;;;;;29.10;17.40;;;;;;;5.59;61.23;100066.49;117292;1186;23545;-65
2022/01/14 11:11:48;;;;;;;28.20;17.30;;;;;;;5.72;61.31;100063.05;117364;1185;22925;-57
2022/01/14 11:14:16;;;;;;;22.60;13.40;;;;;;;5.82;61.46;100060.46;117401;1185;23472;-65
2022/01/14 11:16:49;;;;;;;27.60;15.20;;;;;;;5.93;61.46;100041.50;117359;1189;23643;-65
2022/01/14 11:19:20;;;;;;;29.70;16.80;;;;;;;6.01;61.25;100034.37;117362;1185;23808;-65
2022/01/14 11:24:37;;;;;;;25.40;15.40;;;;;;;6.17;61.35;100016.81;117353;1186;21882;-64
2022/01/14 11:27:06;;;;;;;28.90;15.90;;;;;;;6.23;61.27;100011.05;117161;1188;24187;-65
2022/01/14 11:29:37;;;;;;;24.30;14.00;;;;;;;6.29;61.24;100016.45;117376;1185;21848;-57
2022/01/14 11:32:07;;;;;;;26.30;15.00;;;;;;;6.34;61.10;100011.92;117320;1184;22844;-64
2022/01/14 11:34:45;;;;;;;22.30;14.80;;;;;;;6.38;61.37;99999.38;117337;1185;21845;-57
2022/01/14 11:37:33;;;;;;;22.10;14.40;;;;;;;6.46;61.20;99995.34;117361;1185;22622;-57
2022/01/14 11:40:04;;;;;;;25.30;15.10;;;;;;;6.55;61.62;99989.94;117459;1185;24878;-65
2022/01/14 11:42:58;;;;;;;22.70;15.00;;;;;;;6.63;61.50;99981.37;117438;1182;22775;-57
2022/01/14 11:45:40;;;;;;;23.80;14.90;;;;;;;6.72;61.51;99976.11;117312;1182;23526;-57
2022/01/14 11:48:29;;;;;;;24.10;14.90;;;;;;;6.85;61.52;99967.35;117344;1185;22928;-57
2022/01/14 11:50:59;;;;;;;24.90;15.50;;;;;;;7.02;61.56;99972.34;117366;1185;22994;-57
2022/01/14 11:53:36;;;;;;;25.20;14.60;;;;;;;7.19;61.82;99965.98;117356;1182;22322;-65